Aérodrome :
LOGIN :

S'inscrire | Disclaimer

   EN    FR    IT 

 










Légende :    VFR   VFR Marginal   IFR   IFR Intensif   IFR Très Intensif
Visi : 
Plafond : 
>= 8 km
>= 3000ft
5 à 8 km
1000 à 3000 ft
1500m à 5 km
500 à 1000 ft
800 à 1500m
200 à 500 ft
< 800m
< 200 ft
Symboles :   Orages  Brouillard  Fortes neiges  Fortes précipitations  Vent > 20 kt
SIGMETs :   Divers  Orages  Givrage  Turbulence  Onde Orograph.  Cendres Volcan.






- Altitude de l'aérodrome : 1000 ft
- Code IATA : PEV


LHPP - Pécs Pogany

DERNIER METAR :
  • 031715Z 09006KT CAVOK 28/18 Q1005

METARs EXPIRÉS :
  • 031645Z 11008KT CAVOK 29/17 Q1005
  • 031615Z 11009KT CAVOK 29/16 Q1005
  • 031545Z 11008KT CAVOK 29/17 Q1006
  • 031515Z 12007KT CAVOK 30/17 Q1006

TAF TAF LHPP
Valide du 03 à 15h jusqu'au 04 à 00h UTC


031415Z 0315/0324 14007KT CAVOK
TEMPO 0315/0320 VRB14G24KT 6000 -TSRA SHRA SCT065CB
PROB30
TEMPO 0316/0320 VRB20G30KT 3000 TSRA SHRA BKN060CB BKN080
BECMG 0320/0323 02008KT



MET'MAP, la Météo Aéronautique d'un coup d'oeil ! - Copyright ORBIFLY Décembre 2007 - Disclaimer

ORBIFLY MET'MAP TEAM :

Programmation & Développement : Alexandra Zaïnal
Sur une idée originale de : Baudouin d'Aumeries
Assistance à la programmation : Marc-Olivier Méhu
Soutien technique & logistique : Manuel Goepfert

Contact : metmap@orbifly.com




SOURCES & CREDITS :

   NOAA